createdAt,value
2022-10-17T00:00:12.283Z,79.84
2022-10-17T00:02:42.912Z,79.71
2022-10-17T00:05:13.339Z,79.74
2022-10-17T00:07:43.744Z,79.79
2022-10-17T00:10:14.488Z,79.69
2022-10-17T00:12:45.177Z,79.77
2022-10-17T00:15:21.664Z,79.80
2022-10-17T00:17:51.957Z,79.78
2022-10-17T00:20:22.397Z,79.80
2022-10-17T00:22:53.088Z,79.76
2022-10-17T00:25:23.596Z,79.70
2022-10-17T00:27:54.015Z,79.89
2022-10-17T00:30:24.378Z,80.06
2022-10-17T00:32:54.643Z,80.18
2022-10-17T00:35:25.033Z,80.18
2022-10-17T00:37:55.551Z,80.07
2022-10-17T00:40:26.282Z,80.28
2022-10-17T00:42:56.607Z,80.23
2022-10-17T00:45:29.697Z,80.23
2022-10-17T00:48:06.126Z,80.41
2022-10-17T00:50:39.376Z,80.51
2022-10-17T00:53:10.824Z,80.37
2022-10-17T00:55:47.438Z,80.19
2022-10-17T00:58:18.981Z,80.15
2022-10-17T01:00:49.994Z,80.25
2022-10-17T01:03:20.379Z,80.09
2022-10-17T01:05:50.951Z,80.07
2022-10-17T01:08:21.443Z,80.07
2022-10-17T01:11:19.004Z,80.05
2022-10-17T01:13:52.468Z,80.23
2022-10-17T01:16:40.884Z,80.49
2022-10-17T01:19:29.305Z,80.72
2022-10-17T01:22:19.495Z,81.04
2022-10-17T01:25:18.437Z,81.35
2022-10-17T01:28:17.533Z,81.53
2022-10-17T01:31:06.026Z,81.94
2022-10-17T01:34:05.419Z,82.36
2022-10-17T01:36:41.390Z,82.14
2022-10-17T01:39:43.898Z,82.09
2022-10-17T01:42:24.263Z,82.12
2022-10-17T01:45:09.897Z,82.28
2022-10-17T01:47:42.629Z,82.37
2022-10-17T01:50:16.008Z,83.70
2022-10-17T01:52:49.469Z,83.81
2022-10-17T01:55:22.752Z,83.80
2022-10-17T01:57:56.046Z,84.05
2022-10-17T02:00:28.478Z,84.12
2022-10-17T02:03:02.306Z,84.55
2022-10-17T02:05:35.922Z,84.80
2022-10-17T02:08:06.835Z,84.94
2022-10-17T02:10:49.100Z,84.54
2022-10-17T02:13:42.147Z,84.57
2022-10-17T02:16:21.101Z,85.07
2022-10-17T02:19:09.562Z,85.60
2022-10-17T02:21:43.000Z,86.00
2022-10-17T02:24:21.983Z,86.19
2022-10-17T02:26:59.824Z,86.32
2022-10-17T02:29:33.197Z,86.52
2022-10-17T02:32:12.581Z,86.49
2022-10-17T02:34:48.334Z,86.54
2022-10-17T02:37:21.804Z,86.39
2022-10-17T02:39:52.720Z,86.22
2022-10-17T02:42:25.731Z,86.31
2022-10-17T02:44:58.396Z,86.25
2022-10-17T02:47:38.037Z,86.43
2022-10-17T02:50:08.959Z,86.61
2022-10-17T02:52:42.338Z,86.58
2022-10-17T02:55:18.930Z,86.57
2022-10-17T02:57:52.136Z,86.67
2022-10-17T03:00:24.484Z,86.71
2022-10-17T03:02:55.891Z,86.67
2022-10-17T03:05:29.441Z,86.91
2022-10-17T03:07:59.803Z,87.02
2022-10-17T03:10:30.187Z,87.06
2022-10-17T03:13:00.505Z,87.06
2022-10-17T03:15:30.907Z,87.08
2022-10-17T03:18:01.437Z,87.03
2022-10-17T03:20:31.840Z,87.15
2022-10-17T03:23:02.244Z,87.11
2022-10-17T03:25:32.842Z,87.09
2022-10-17T03:28:05.411Z,87.10
2022-10-17T03:30:35.775Z,86.99
2022-10-17T03:33:06.237Z,87.15
2022-10-17T03:35:40.387Z,87.23
2022-10-17T03:38:10.833Z,87.39
2022-10-17T03:40:41.174Z,87.39
2022-10-17T03:43:11.801Z,87.48
2022-10-17T03:45:42.254Z,87.64
2022-10-17T03:48:12.652Z,87.67
2022-10-17T03:50:43.041Z,87.70
2022-10-17T03:53:13.486Z,87.80
2022-10-17T03:55:43.855Z,87.71
2022-10-17T03:58:14.235Z,87.84
2022-10-17T04:00:44.646Z,87.79
2022-10-17T04:03:17.349Z,87.92
2022-10-17T04:05:47.195Z,87.93
2022-10-17T04:08:17.662Z,87.92
2022-10-17T04:10:48.080Z,87.96
2022-10-17T04:13:18.475Z,88.00
2022-10-17T04:15:56.341Z,88.00
2022-10-17T04:18:27.532Z,88.15
2022-10-17T04:20:58.007Z,88.26
2022-10-17T04:23:28.432Z,88.31
2022-10-17T04:26:00.584Z,88.40
2022-10-17T04:28:31.480Z,88.40
2022-10-17T04:31:05.406Z,88.39
2022-10-17T04:33:36.050Z,88.31
2022-10-17T04:36:09.402Z,88.43
2022-10-17T04:38:40.540Z,88.33
2022-10-17T04:41:14.011Z,88.41
2022-10-17T04:43:48.421Z,88.54
2022-10-17T04:46:17.026Z,88.58
2022-10-17T04:48:47.435Z,88.64
2022-10-17T04:51:21.845Z,88.68
2022-10-17T04:53:51.547Z,88.77
2022-10-17T04:56:27.212Z,88.78
2022-10-17T04:58:59.434Z,88.85
2022-10-17T05:01:29.801Z,88.82
2022-10-17T05:04:00.255Z,88.89
2022-10-17T05:06:31.622Z,88.90
2022-10-17T05:09:02.209Z,88.90
2022-10-17T05:11:32.589Z,88.93
2022-10-17T05:14:03.444Z,88.77
2022-10-17T05:16:33.773Z,88.86
2022-10-17T05:19:04.647Z,88.89
2022-10-17T05:21:36.613Z,88.82
2022-10-17T05:24:12.342Z,88.89
2022-10-17T05:26:42.756Z,88.93
2022-10-17T05:29:13.136Z,88.97
2022-10-17T05:31:43.540Z,88.98
2022-10-17T05:34:14.111Z,89.07
2022-10-17T05:36:44.694Z,89.17
2022-10-17T05:39:16.948Z,89.02
2022-10-17T05:41:47.914Z,89.02
2022-10-17T05:44:18.455Z,88.89
2022-10-17T05:46:52.122Z,88.87
2022-10-17T05:49:32.986Z,88.81
2022-10-17T05:51:54.682Z,88.88
2022-10-17T05:54:25.078Z,88.96
2022-10-17T05:56:56.456Z,88.86
2022-10-17T05:59:28.190Z,88.88
2022-10-17T06:01:58.946Z,88.91
2022-10-17T06:04:29.515Z,88.75
2022-10-17T06:06:59.894Z,88.79
2022-10-17T06:09:30.306Z,88.68
2022-10-17T06:12:00.728Z,88.67
2022-10-17T06:14:31.104Z,88.54
2022-10-17T06:17:02.716Z,88.49
2022-10-17T06:19:33.160Z,88.45
2022-10-17T06:22:03.485Z,88.42
2022-10-17T06:24:33.962Z,88.31
2022-10-17T06:27:09.357Z,88.21
2022-10-17T06:29:36.626Z,88.12
2022-10-17T06:32:09.920Z,88.08
2022-10-17T06:34:40.053Z,88.06
2022-10-17T06:37:10.625Z,88.04
2022-10-17T06:39:41.046Z,87.95
2022-10-17T06:42:11.459Z,87.82
2022-10-17T06:44:42.113Z,87.74
2022-10-17T06:47:15.434Z,87.69
2022-10-17T06:49:45.646Z,87.51
2022-10-17T06:52:17.035Z,87.60
2022-10-17T06:54:47.437Z,87.49
2022-10-17T06:57:17.769Z,87.47
2022-10-17T06:59:48.153Z,87.30
2022-10-17T07:02:18.665Z,87.23
2022-10-17T07:04:49.062Z,87.17
2022-10-17T07:07:19.453Z,86.94
2022-10-17T07:09:49.840Z,86.81
2022-10-17T07:12:20.249Z,86.59
2022-10-17T07:14:50.957Z,86.37
2022-10-17T07:17:21.283Z,86.02
2022-10-17T07:19:51.899Z,85.63
2022-10-17T07:22:22.237Z,85.21
2022-10-17T07:24:52.562Z,85.19
2022-10-17T07:27:22.960Z,85.17
2022-10-17T07:29:53.359Z,84.90
2022-10-17T07:32:23.718Z,84.78
2022-10-17T07:34:54.060Z,84.60
2022-10-17T07:37:24.525Z,84.62
2022-10-17T07:39:56.489Z,84.56
2022-10-17T07:42:28.381Z,84.33
2022-10-17T07:44:58.958Z,84.15
2022-10-17T07:47:31.428Z,83.78
2022-10-17T07:50:03.174Z,83.58
2022-10-17T07:52:33.757Z,83.44
2022-10-17T07:55:04.281Z,83.08
2022-10-17T07:57:34.597Z,82.75
2022-10-17T08:00:05.492Z,82.63
2022-10-17T08:02:35.795Z,82.35
2022-10-17T08:05:06.813Z,82.00
2022-10-17T08:07:37.204Z,82.08
2022-10-17T08:12:39.809Z,81.48
2022-10-17T08:15:11.199Z,80.91
2022-10-17T08:17:41.784Z,80.60
2022-10-17T08:20:13.323Z,80.22
2022-10-17T08:22:43.713Z,79.89
2022-10-17T08:25:14.002Z,79.13
2022-10-17T08:27:44.396Z,79.06
2022-10-17T08:30:14.804Z,78.62
2022-10-17T08:32:45.286Z,78.66
2022-10-17T08:35:15.670Z,78.50
2022-10-17T08:37:46.065Z,78.29
2022-10-17T08:40:25.854Z,78.18
2022-10-17T08:43:08.440Z,77.75
2022-10-17T08:45:54.005Z,76.99
2022-10-17T08:48:26.541Z,76.92
2022-10-17T08:51:18.176Z,76.55
2022-10-17T08:53:51.635Z,76.28
2022-10-17T08:56:47.607Z,76.11
2022-10-17T08:59:00.744Z,75.71
2022-10-17T09:01:41.003Z,75.60
2022-10-17T09:04:23.235Z,75.07
2022-10-17T09:07:08.504Z,74.49
2022-10-17T09:10:02.947Z,73.72
2022-10-17T09:12:39.171Z,72.61
2022-10-17T09:15:30.493Z,70.67
2022-10-17T09:18:17.577Z,68.63
2022-10-17T09:20:58.075Z,67.31
2022-10-17T09:23:42.434Z,64.90
2022-10-17T09:26:13.051Z,64.61
2022-10-17T09:28:44.642Z,64.76
2022-10-17T09:31:29.709Z,63.00
2022-10-17T09:34:02.996Z,61.83
2022-10-17T09:36:38.381Z,60.61
2022-10-17T09:39:23.369Z,59.06
2022-10-17T09:41:56.175Z,56.59
2022-10-17T09:44:35.144Z,56.38
2022-10-17T09:47:34.248Z,56.93
2022-10-17T09:50:06.298Z,58.05
2022-10-17T09:52:39.659Z,59.52
2022-10-17T09:55:33.038Z,58.35
2022-10-17T09:58:05.652Z,56.93
2022-10-17T10:00:39.175Z,59.40
2022-10-17T10:03:15.154Z,61.46
2022-10-17T10:06:05.292Z,62.15
2022-10-17T10:08:38.439Z,62.81
2022-10-17T10:11:13.764Z,61.92
2022-10-17T10:13:44.818Z,61.36
2022-10-17T10:16:24.485Z,58.87
2022-10-17T10:18:54.857Z,59.02
2022-10-17T10:21:27.569Z,59.43
2022-10-17T10:24:13.037Z,59.95
2022-10-17T10:26:46.594Z,60.60
2022-10-17T10:29:37.406Z,60.81
2022-10-17T10:32:28.791Z,60.73
2022-10-17T10:35:05.173Z,61.50
2022-10-17T10:37:41.543Z,61.27
2022-10-17T10:40:30.069Z,61.33
2022-10-17T10:43:05.476Z,60.18
2022-10-17T10:45:48.315Z,60.31
2022-10-17T10:48:21.817Z,59.90
2022-10-17T10:50:55.279Z,60.45
2022-10-17T10:53:35.542Z,60.10
2022-10-17T10:56:21.394Z,59.98
2022-10-17T10:59:09.221Z,58.63
2022-10-17T11:01:48.312Z,56.74
2022-10-17T11:04:30.797Z,55.08
2022-10-17T11:07:07.021Z,54.62
2022-10-17T11:10:09.071Z,55.63
2022-10-17T11:13:01.973Z,55.44
2022-10-17T11:15:50.696Z,54.79
2022-10-17T11:18:33.009Z,52.99
2022-10-17T11:21:17.838Z,51.63
2022-10-17T11:23:53.798Z,49.09
2022-10-17T11:26:27.224Z,48.34
2022-10-17T11:29:00.293Z,50.10
2022-10-17T11:31:36.832Z,50.43
2022-10-17T11:34:10.273Z,50.82
2022-10-17T11:36:43.741Z,50.92
2022-10-17T11:39:23.188Z,49.25
2022-10-17T11:41:58.853Z,47.82
2022-10-17T11:44:35.458Z,46.52
2022-10-17T11:47:32.144Z,46.49
2022-10-17T11:52:55.935Z,48.48
2022-10-17T11:55:21.637Z,49.99
2022-10-17T11:58:22.371Z,50.93
2022-10-17T12:01:10.849Z,52.20
2022-10-17T12:03:53.380Z,52.22
2022-10-17T12:06:47.683Z,52.52
2022-10-17T12:09:21.090Z,52.54
2022-10-17T12:11:54.550Z,53.15
2022-10-17T12:14:46.464Z,53.45
2022-10-17T12:17:25.684Z,53.88
2022-10-17T12:20:15.799Z,54.20
2022-10-17T12:22:51.436Z,54.48
2022-10-17T12:25:26.118Z,54.67
2022-10-17T12:28:10.898Z,54.78
2022-10-17T12:30:52.787Z,55.33
2022-10-17T12:33:32.293Z,55.08
2022-10-17T12:36:29.607Z,55.02
2022-10-17T12:39:07.875Z,55.18
2022-10-17T12:41:45.982Z,55.56
2022-10-17T12:44:22.267Z,55.24
2022-10-17T12:47:11.181Z,55.11
2022-10-17T12:49:46.787Z,55.33
2022-10-17T12:52:36.644Z,55.39
2022-10-17T12:55:14.061Z,55.46
2022-10-17T12:58:08.282Z,54.92
2022-10-17T13:01:05.153Z,54.75
2022-10-17T13:03:25.151Z,54.67
2022-10-17T13:05:58.372Z,55.10
2022-10-17T13:08:40.526Z,55.39
2022-10-17T13:11:11.736Z,55.51
2022-10-17T13:13:48.821Z,55.13
2022-10-17T13:16:39.925Z,55.45
2022-10-17T13:19:19.245Z,55.47
2022-10-17T13:22:07.036Z,55.17
2022-10-17T13:24:39.207Z,55.43
2022-10-17T13:27:24.910Z,55.88
2022-10-17T13:29:56.538Z,55.35
2022-10-17T13:32:29.522Z,55.78
2022-10-17T13:35:13.034Z,55.01
2022-10-17T13:37:47.370Z,54.82
2022-10-17T13:40:49.621Z,54.68
2022-10-17T13:43:02.094Z,55.27
2022-10-17T13:45:35.286Z,55.41
2022-10-17T13:48:10.213Z,54.98
2022-10-17T13:50:44.858Z,55.53
2022-10-17T13:53:34.005Z,55.54
2022-10-17T13:56:29.792Z,55.33
2022-10-17T13:59:05.121Z,55.30
2022-10-17T14:01:35.893Z,55.02
2022-10-17T14:04:17.102Z,55.27
2022-10-17T14:06:46.402Z,55.54
2022-10-17T14:09:32.797Z,55.62
2022-10-17T14:12:14.977Z,55.92
2022-10-17T14:15:09.876Z,56.13
2022-10-17T14:17:27.348Z,56.77
2022-10-17T14:22:38.229Z,57.00
2022-10-17T14:25:28.586Z,57.73
2022-10-17T14:28:06.471Z,57.25
2022-10-17T14:33:17.756Z,57.34
2022-10-17T14:35:53.027Z,58.02
2022-10-17T14:38:24.004Z,57.58
2022-10-17T14:41:37.772Z,57.96
2022-10-17T14:43:35.386Z,58.07
2022-10-17T14:46:06.115Z,57.83
2022-10-17T14:48:37.085Z,58.72
2022-10-17T14:51:16.312Z,58.51
2022-10-17T14:54:05.308Z,59.20
2022-10-17T14:56:44.040Z,59.61
2022-10-17T14:59:30.125Z,59.75
2022-10-17T15:01:48.065Z,59.66
2022-10-17T15:04:18.932Z,59.87
2022-10-17T15:06:52.386Z,60.34
2022-10-17T15:09:23.753Z,60.59
2022-10-17T15:11:54.174Z,61.02
2022-10-17T15:14:24.826Z,61.25
2022-10-17T15:16:55.255Z,61.11
2022-10-17T15:19:25.614Z,62.44
2022-10-17T15:21:55.995Z,62.21
2022-10-17T15:24:26.503Z,62.08
2022-10-17T15:26:56.909Z,62.66
2022-10-17T15:29:28.253Z,63.09
2022-10-17T15:31:58.672Z,62.97
2022-10-17T15:34:29.026Z,63.11
2022-10-17T15:36:59.484Z,63.36
2022-10-17T15:39:30.184Z,63.80
2022-10-17T15:42:00.925Z,63.77
2022-10-17T15:44:31.597Z,63.80
2022-10-17T15:47:03.105Z,64.48
2022-10-17T15:49:34.736Z,65.07
2022-10-17T15:52:05.772Z,65.48
2022-10-17T15:54:36.333Z,65.04
2022-10-17T15:57:06.771Z,65.90
2022-10-17T15:59:37.090Z,66.26
2022-10-17T16:02:14.388Z,65.35
2022-10-17T16:04:45.277Z,65.89
2022-10-17T16:07:16.131Z,66.61
2022-10-17T16:09:49.314Z,65.57
2022-10-17T16:12:25.714Z,66.49
2022-10-17T16:14:57.251Z,66.03
2022-10-17T16:17:27.879Z,66.96
2022-10-17T16:20:01.194Z,65.99
2022-10-17T16:22:35.947Z,66.22
2022-10-17T16:25:10.043Z,65.90
2022-10-17T16:27:40.921Z,66.08
2022-10-17T16:30:11.461Z,66.49
2022-10-17T16:32:42.440Z,66.47
2022-10-17T16:35:18.536Z,67.05
2022-10-17T16:37:49.265Z,67.13
2022-10-17T16:40:20.258Z,66.27
2022-10-17T16:42:50.605Z,66.03
2022-10-17T16:45:23.467Z,66.65
2022-10-17T16:47:53.860Z,66.29
2022-10-17T16:50:24.508Z,65.82
2022-10-17T16:52:54.934Z,65.91
2022-10-17T16:55:25.530Z,66.08
2022-10-17T16:57:55.933Z,66.90
2022-10-17T17:00:26.735Z,66.79
2022-10-17T17:02:57.189Z,66.25
2022-10-17T17:05:28.217Z,66.40
2022-10-17T17:07:59.910Z,66.26
2022-10-17T17:10:30.275Z,66.81
2022-10-17T17:16:07.939Z,67.62
2022-10-17T17:18:39.040Z,67.65
2022-10-17T17:21:11.321Z,67.42
2022-10-17T17:23:43.375Z,67.52
2022-10-17T17:26:19.215Z,68.37
2022-10-17T17:28:50.818Z,68.11
2022-10-17T17:31:23.891Z,67.88
2022-10-17T17:36:28.594Z,69.11
2022-10-17T17:39:00.759Z,68.39
2022-10-17T17:41:31.682Z,69.60
2022-10-17T17:44:03.462Z,69.65
2022-10-17T17:46:34.180Z,69.09
2022-10-17T17:49:04.918Z,69.15
2022-10-17T17:51:36.943Z,68.81
2022-10-17T17:54:09.081Z,68.74
2022-10-17T17:56:40.565Z,68.77
2022-10-17T17:59:13.465Z,68.93
2022-10-17T18:01:44.518Z,69.34
2022-10-17T18:04:16.533Z,69.78
2022-10-17T18:06:46.922Z,69.56
2022-10-17T18:09:17.241Z,69.65
2022-10-17T18:11:47.542Z,70.08
2022-10-17T18:14:19.097Z,69.78
2022-10-17T18:16:49.464Z,70.51
2022-10-17T18:19:20.195Z,70.79
2022-10-17T18:21:50.696Z,71.25
2022-10-17T18:24:21.065Z,70.53
2022-10-17T18:26:53.259Z,71.53
2022-10-17T18:29:23.722Z,72.31
2022-10-17T18:31:54.333Z,71.92
2022-10-17T18:34:25.151Z,72.44
2022-10-17T18:36:56.073Z,72.50
2022-10-17T18:39:26.670Z,72.18
2022-10-17T18:41:57.366Z,72.66
2022-10-17T18:44:28.218Z,73.21
2022-10-17T18:47:02.959Z,72.61
2022-10-17T18:49:32.809Z,73.66
2022-10-17T18:52:03.177Z,73.85
2022-10-17T18:54:34.624Z,74.22
2022-10-17T18:57:05.226Z,74.46
2022-10-17T18:59:35.770Z,74.52
2022-10-17T19:02:06.665Z,75.07
2022-10-17T19:04:37.388Z,75.38
2022-10-17T19:07:07.821Z,75.52
2022-10-17T19:09:38.286Z,75.89
2022-10-17T19:12:08.596Z,75.77
2022-10-17T19:14:39.486Z,76.06
2022-10-17T19:17:10.004Z,76.11
2022-10-17T19:19:40.681Z,76.26
2022-10-17T19:22:11.117Z,76.38
2022-10-17T19:24:41.672Z,76.68
2022-10-17T19:27:12.287Z,76.88
2022-10-17T19:29:44.082Z,76.98
2022-10-17T19:32:17.918Z,77.18
2022-10-17T19:34:46.572Z,77.30
2022-10-17T19:37:16.929Z,77.41
2022-10-17T19:39:49.050Z,77.45
2022-10-17T19:42:19.549Z,77.83
2022-10-17T19:44:49.951Z,78.08
2022-10-17T19:47:20.338Z,78.01
2022-10-17T19:49:51.045Z,78.11
2022-10-17T19:52:21.391Z,78.34
2022-10-17T19:54:51.711Z,78.39
2022-10-17T19:57:22.109Z,78.56
2022-10-17T19:59:55.835Z,78.56
2022-10-17T20:02:24.741Z,78.58
2022-10-17T20:05:13.780Z,78.60
2022-10-17T20:07:27.143Z,78.65
2022-10-17T20:09:57.397Z,78.63
2022-10-17T20:12:28.357Z,78.71
2022-10-17T20:14:59.066Z,78.84
2022-10-17T20:17:29.728Z,78.90
2022-10-17T20:20:02.440Z,78.92
2022-10-17T20:22:32.631Z,79.27
2022-10-17T20:25:03.165Z,79.26
2022-10-17T20:27:33.586Z,79.32
2022-10-17T20:30:04.639Z,79.41
2022-10-17T20:32:39.524Z,79.53
2022-10-17T20:35:09.644Z,79.77
2022-10-17T20:37:42.668Z,79.80
2022-10-17T20:42:45.163Z,79.89
2022-10-17T20:45:15.450Z,80.01
2022-10-17T20:47:49.193Z,80.11
2022-10-17T20:50:17.947Z,80.11
2022-10-17T20:52:50.633Z,80.23
2022-10-17T20:55:21.163Z,80.41
2022-10-17T20:57:53.931Z,80.27
2022-10-17T21:00:24.309Z,80.60
2022-10-17T21:05:25.160Z,80.72
2022-10-17T21:07:55.523Z,80.87
2022-10-17T21:10:36.065Z,80.77
2022-10-17T21:12:59.538Z,80.77
2022-10-17T21:15:30.203Z,80.84
2022-10-17T21:18:00.489Z,80.91
2022-10-17T21:20:30.914Z,81.01
2022-10-17T21:23:01.220Z,81.25
2022-10-17T21:25:32.368Z,81.44
2022-10-17T21:28:02.652Z,81.29
2022-10-17T21:30:33.008Z,81.43
2022-10-17T21:33:03.379Z,81.46
2022-10-17T21:35:33.787Z,81.55
2022-10-17T21:38:04.537Z,81.64
2022-10-17T21:40:34.858Z,81.59
2022-10-17T21:43:05.232Z,81.73
2022-10-17T21:45:37.178Z,81.71
2022-10-17T21:48:14.743Z,81.85
2022-10-17T21:50:40.964Z,82.02
2022-10-17T21:53:11.253Z,81.72
2022-10-17T21:55:41.647Z,81.87
2022-10-17T21:58:12.126Z,81.80
2022-10-17T22:00:42.567Z,81.83
2022-10-17T22:03:14.633Z,81.72
2022-10-17T22:05:45.906Z,81.64
2022-10-17T22:08:16.202Z,81.52
2022-10-17T22:10:46.605Z,81.48
2022-10-17T22:13:16.977Z,81.29
2022-10-17T22:15:47.293Z,81.30
2022-10-17T22:18:17.732Z,80.98
2022-10-17T22:20:48.132Z,80.84
2022-10-17T22:23:18.744Z,80.53
2022-10-17T22:25:57.263Z,80.24
2022-10-17T22:28:27.790Z,80.30
2022-10-17T22:30:58.115Z,80.15
2022-10-17T22:33:28.429Z,80.10
2022-10-17T22:35:59.188Z,80.20
2022-10-17T22:38:29.722Z,80.15
2022-10-17T22:41:00.287Z,80.25
2022-10-17T22:43:30.956Z,80.27
2022-10-17T22:46:03.780Z,80.20
2022-10-17T22:48:34.665Z,80.15
2022-10-17T22:51:05.174Z,80.06
2022-10-17T22:53:37.313Z,80.11
2022-10-17T22:56:13.607Z,80.18
2022-10-17T22:58:44.373Z,80.18
2022-10-17T23:01:17.871Z,80.20
2022-10-17T23:03:48.758Z,80.13
2022-10-17T23:06:19.594Z,80.11
2022-10-17T23:08:50.256Z,80.15
2022-10-17T23:11:21.042Z,80.20
2022-10-17T23:13:51.597Z,80.25
2022-10-17T23:16:22.079Z,80.43
2022-10-17T23:18:52.542Z,80.40
2022-10-17T23:21:22.909Z,80.43
2022-10-17T23:23:53.292Z,80.60
2022-10-17T23:26:23.674Z,80.56
2022-10-17T23:28:56.819Z,80.53
2022-10-17T23:31:27.274Z,80.53
2022-10-17T23:33:59.044Z,80.51
2022-10-17T23:36:29.602Z,80.66
2022-10-17T23:38:59.858Z,80.68
2022-10-17T23:41:30.334Z,80.57
2022-10-17T23:44:00.655Z,80.67
2022-10-17T23:46:31.363Z,80.59
2022-10-17T23:49:01.821Z,80.47
2022-10-17T23:51:32.497Z,80.45
2022-10-17T23:54:02.889Z,80.42
2022-10-17T23:56:33.296Z,80.46
2022-10-17T23:59:03.749Z,80.55
